Time;durP1;ratioP1;P1;durP2;ratioP2;P2;SDS_P1;SDS_P2;PMS_P1;PMS_P2;Temp;Humidity;BMP_temperature;BMP_pressure;BME280_temperature;BME280_humidity;BME280_pressure;Samples;Min_cycle;Max_cycle;Signal;HPM_P1;HPM_P2
2022/11/16 00:00:41;;;;;;;4.30;3.90;;;;;;;;;;4948315;29;20201;-92
2022/11/16 00:03:11;;;;;;;16.20;14.30;;;;;;;;;;4946967;29;20238;-93
2022/11/16 00:05:39;;;;;;;11.77;8.83;;;;;;;;;;4949419;29;20238;-93
2022/11/16 00:08:08;;;;;;;10.97;6.53;;;;;;;;;;4970273;28;20258;-93
2022/11/16 00:10:36;;;;;;;13.50;9.67;;;;;;;;;;4953684;29;20201;-92
2022/11/16 00:13:04;;;;;;;2.13;2.03;;;;;;;;;;4954054;29;20205;-94
2022/11/16 00:15:33;;;;;;;4.03;2.77;;;;;;;;;;4942317;28;20216;-92
2022/11/16 00:18:01;;;;;;;4.33;3.93;;;;;;;;;;4950768;29;20210;-92
2022/11/16 00:20:31;;;;;;;3.13;2.83;;;;;;;;;;4941067;29;20217;-92
2022/11/16 00:23:00;;;;;;;11.27;9.97;;;;;;;;;;4958312;29;20202;-88
2022/11/16 00:25:28;;;;;;;7.77;6.27;;;;;;;;;;4945347;29;20292;-93
2022/11/16 00:27:56;;;;;;;13.07;11.67;;;;;;;;;;4957940;29;20197;-93
2022/11/16 00:30:25;;;;;;;7.70;6.70;;;;;;;;;;4975683;28;20244;-93
2022/11/16 00:32:53;;;;;;;12.47;11.03;;;;;;;;;;4957733;29;20280;-92
2022/11/16 00:35:22;;;;;;;11.87;10.63;;;;;;;;;;4939603;29;20222;-92
2022/11/16 00:37:53;;;;;;;15.93;14.43;;;;;;;;;;4947833;29;20210;-93
2022/11/16 00:40:21;;;;;;;13.90;12.33;;;;;;;;;;4938906;29;20305;-93
2022/11/16 00:42:50;;;;;;;10.03;8.83;;;;;;;;;;4952653;29;20205;-93
2022/11/16 00:45:18;;;;;;;10.33;9.20;;;;;;;;;;4950437;29;20203;-93
2022/11/16 00:47:47;;;;;;;17.07;13.37;;;;;;;;;;4953119;29;20205;-92
2022/11/16 00:50:15;;;;;;;10.67;8.57;;;;;;;;;;4958016;29;20233;-94
2022/11/16 00:52:44;;;;;;;13.80;11.13;;;;;;;;;;4954647;29;20216;-93
2022/11/16 00:55:13;;;;;;;14.33;12.93;;;;;;;;;;4938343;29;20224;-93
2022/11/16 00:57:42;;;;;;;19.23;17.30;;;;;;;;;;4941560;29;20202;-92
2022/11/16 01:00:11;;;;;;;15.03;12.80;;;;;;;;;;4973555;28;20206;-93
2022/11/16 01:02:40;;;;;;;16.77;15.07;;;;;;;;;;4952675;29;20245;-93
2022/11/16 01:05:09;;;;;;;9.30;8.13;;;;;;;;;;4939629;29;20222;-93
2022/11/16 01:07:39;;;;;;;15.00;13.23;;;;;;;;;;4945249;29;20206;-94
2022/11/16 01:10:08;;;;;;;11.63;10.40;;;;;;;;;;4957226;29;20206;-92
2022/11/16 01:12:37;;;;;;;19.03;17.27;;;;;;;;;;4986142;28;20256;-94
2022/11/16 01:15:08;;;;;;;18.83;17.03;;;;;;;;;;4944998;29;20218;-92
2022/11/16 01:17:36;;;;;;;19.40;17.60;;;;;;;;;;4944459;29;20201;-93
2022/11/16 01:20:06;;;;;;;19.57;17.77;;;;;;;;;;4953967;29;20206;-93
2022/11/16 01:22:36;;;;;;;17.77;15.73;;;;;;;;;;4950581;29;20202;-92
2022/11/16 01:25:04;;;;;;;15.43;13.97;;;;;;;;;;4939168;29;20229;-93
2022/11/16 01:27:33;;;;;;;18.37;16.13;;;;;;;;;;4946529;29;20248;-93
2022/11/16 01:30:03;;;;;;;20.67;18.50;;;;;;;;;;4957697;29;20202;-92
2022/11/16 01:32:32;;;;;;;22.10;19.87;;;;;;;;;;4956264;28;20219;-93
2022/11/16 01:35:00;;;;;;;24.87;21.40;;;;;;;;;;4947259;29;20252;-93
2022/11/16 01:37:29;;;;;;;23.77;21.57;;;;;;;;;;4969158;28;20206;-93
2022/11/16 01:39:57;;;;;;;17.50;15.67;;;;;;;;;;4947883;29;20216;-92
2022/11/16 01:42:27;;;;;;;24.17;21.80;;;;;;;;;;4939702;29;20226;-93
2022/11/16 01:44:56;;;;;;;20.43;18.40;;;;;;;;;;4941142;29;20272;-94
2022/11/16 01:47:26;;;;;;;23.37;20.30;;;;;;;;;;4963101;28;20242;-93
2022/11/16 01:49:56;;;;;;;24.43;20.33;;;;;;;;;;4953558;29;20204;-94
2022/11/16 01:52:29;;;;;;;25.07;22.67;;;;;;;;;;4971980;28;20213;-93
2022/11/16 01:54:57;;;;;;;16.43;13.40;;;;;;;;;;4955676;29;20225;-93
2022/11/16 01:57:27;;;;;;;13.90;9.07;;;;;;;;;;4948694;29;20240;-93
2022/11/16 01:59:57;;;;;;;10.23;6.93;;;;;;;;;;4953145;29;20233;-92
2022/11/16 02:02:27;;;;;;;5.50;5.03;;;;;;;;;;4946360;29;20238;-93
2022/11/16 02:04:57;;;;;;;7.70;5.33;;;;;;;;;;4953483;28;20276;-92
2022/11/16 02:09:52;;;;;;;6.67;5.13;;;;;;;;;;4961365;28;20230;-92
2022/11/16 02:10:27;;;;;;;11.33;10.30;;;;;;;;;;4967406;28;20205;-92
2022/11/16 02:13:04;;;;;;;7.30;5.27;;;;;;;;;;4947902;28;20265;-93
2022/11/16 02:15:37;;;;;;;5.37;4.77;;;;;;;;;;4955454;29;20225;-93
2022/11/16 02:18:13;;;;;;;4.23;3.40;;;;;;;;;;4955447;29;20244;-93
2022/11/16 02:20:52;;;;;;;1.13;1.10;;;;;;;;;;4959878;28;20205;-92
2022/11/16 02:23:31;;;;;;;2.67;2.47;;;;;;;;;;4959117;28;20213;-94
2022/11/16 02:26:05;;;;;;;2.60;2.40;;;;;;;;;;4956008;29;20205;-92
2022/11/16 02:28:38;;;;;;;1.40;1.30;;;;;;;;;;4955635;29;20237;-93
2022/11/16 02:31:14;;;;;;;0.70;0.70;;;;;;;;;;4955489;29;20206;-93
2022/11/16 02:33:42;;;;;;;3.90;2.73;;;;;;;;;;4937383;29;20199;-94
2022/11/16 02:36:13;;;;;;;2.43;2.23;;;;;;;;;;4948993;29;20217;-92
2022/11/16 02:38:45;;;;;;;0.83;0.83;;;;;;;;;;4955587;29;20201;-94
2022/11/16 02:41:15;;;;;;;1.23;1.13;;;;;;;;;;4954024;29;20221;-94
2022/11/16 02:43:45;;;;;;;3.87;3.27;;;;;;;;;;4954281;28;20261;-94
2022/11/16 02:46:19;;;;;;;1.90;1.80;;;;;;;;;;4955406;29;20207;-93
2022/11/16 02:48:49;;;;;;;3.63;2.57;;;;;;;;;;4945291;29;20230;-94
2022/11/16 02:51:18;;;;;;;3.63;2.30;;;;;;;;;;4953232;29;20208;-92
2022/11/16 02:53:52;;;;;;;4.00;1.53;;;;;;;;;;4943913;29;20211;-92
2022/11/16 02:56:21;;;;;;;2.70;2.50;;;;;;;;;;4955226;28;20217;-93
2022/11/16 02:58:50;;;;;;;3.27;2.97;;;;;;;;;;4955621;29;20201;-94
2022/11/16 03:01:25;;;;;;;2.10;1.90;;;;;;;;;;4955694;29;20246;-93
2022/11/16 03:03:58;;;;;;;3.70;2.23;;;;;;;;;;4953632;28;20236;-92
2022/11/16 03:06:29;;;;;;;2.00;1.80;;;;;;;;;;4955016;29;20206;-93
2022/11/16 03:09:01;;;;;;;5.57;2.10;;;;;;;;;;4951720;29;20491;-94
2022/11/16 03:14:35;;;;;;;4.60;2.23;;;;;;;;;;4878661;29;20212;-93
2022/11/16 03:17:09;;;;;;;2.87;2.00;;;;;;;;;;4931100;28;20216;-91
2022/11/16 03:19:41;;;;;;;2.90;2.07;;;;;;;;;;4954724;29;20209;-93
2022/11/16 03:22:15;;;;;;;2.80;2.20;;;;;;;;;;4942296;29;20280;-94
2022/11/16 03:24:55;;;;;;;3.03;1.47;;;;;;;;;;4954737;29;20201;-91
2022/11/16 03:27:27;;;;;;;2.20;1.70;;;;;;;;;;4943984;29;20221;-91
2022/11/16 03:30:00;;;;;;;3.20;2.90;;;;;;;;;;4942193;29;20216;-92
2022/11/16 03:32:33;;;;;;;1.47;1.20;;;;;;;;;;4954764;29;20217;-93
2022/11/16 03:35:05;;;;;;;1.23;1.13;;;;;;;;;;4949746;29;20224;-92
2022/11/16 03:37:34;;;;;;;2.77;2.10;;;;;;;;;;4948443;29;20212;-92
2022/11/16 03:40:03;;;;;;;3.83;2.90;;;;;;;;;;4953960;29;20226;-92
2022/11/16 03:42:32;;;;;;;3.77;3.33;;;;;;;;;;4955787;29;20210;-92
2022/11/16 03:45:01;;;;;;;2.90;2.60;;;;;;;;;;4953600;29;20209;-94
2022/11/16 03:47:30;;;;;;;4.83;3.30;;;;;;;;;;4954403;29;20265;-93
2022/11/16 03:49:59;;;;;;;0.80;0.80;;;;;;;;;;4951490;28;20210;-94
2022/11/16 03:52:27;;;;;;;4.27;2.60;;;;;;;;;;4948866;29;20300;-93
2022/11/16 03:54:56;;;;;;;4.47;4.07;;;;;;;;;;4953651;29;20266;-92
2022/11/16 03:57:24;;;;;;;6.50;3.80;;;;;;;;;;4953776;29;20266;-93
2022/11/16 03:59:52;;;;;;;0.77;0.63;;;;;;;;;;4954064;29;20209;-93
2022/11/16 04:02:21;;;;;;;4.67;3.53;;;;;;;;;;4954176;29;20237;-92
2022/11/16 04:24:28;;;;;;;12.80;9.70;;;;;;;;;;4955403;28;20203;-93
2022/11/16 04:29:45;;;;;;;14.60;10.37;;;;;;;;;;4957102;28;20226;-93
2022/11/16 04:37:52;;;;;;;14.10;11.07;;;;;;;;;;4964373;28;20221;-93
2022/11/16 04:40:23;;;;;;;11.13;9.07;;;;;;;;;;4954170;29;20211;-93
2022/11/16 04:42:52;;;;;;;15.20;12.67;;;;;;;;;;4953914;29;20230;-93
2022/11/16 04:48:18;;;;;;;11.43;7.87;;;;;;;;;;4947897;29;20202;-93
2022/11/16 04:50:47;;;;;;;11.27;9.57;;;;;;;;;;4947327;29;20202;-93
2022/11/16 04:53:21;;;;;;;11.77;8.77;;;;;;;;;;4942030;29;20229;-94
2022/11/16 04:55:49;;;;;;;18.00;11.17;;;;;;;;;;4941085;29;20210;-93
2022/11/16 04:58:18;;;;;;;14.07;11.07;;;;;;;;;;4945127;29;20268;-93
2022/11/16 05:00:47;;;;;;;7.60;3.67;;;;;;;;;;4962997;28;20233;-93
2022/11/16 05:03:15;;;;;;;16.27;10.73;;;;;;;;;;4934639;29;20275;-93
2022/11/16 05:05:44;;;;;;;10.17;7.77;;;;;;;;;;4938395;29;20205;-94
2022/11/16 05:08:12;;;;;;;19.07;12.33;;;;;;;;;;4947777;29;20220;-92
2022/11/16 05:10:42;;;;;;;15.37;11.03;;;;;;;;;;4952068;29;20200;-93
2022/11/16 05:13:13;;;;;;;15.00;12.03;;;;;;;;;;4950947;29;20213;-93
2022/11/16 05:15:45;;;;;;;15.87;9.70;;;;;;;;;;4944892;29;20287;-93
2022/11/16 05:18:14;;;;;;;19.57;13.10;;;;;;;;;;4945084;29;20256;-93
2022/11/16 05:20:59;;;;;;;19.27;14.70;;;;;;;;;;4957445;29;20219;-91
2022/11/16 05:26:15;;;;;;;16.10;10.30;;;;;;;;;;4945880;29;20262;-93
2022/11/16 05:28:44;;;;;;;17.57;12.77;;;;;;;;;;4956282;29;20197;-93
2022/11/16 05:31:12;;;;;;;11.90;9.93;;;;;;;;;;4956555;29;20202;-92
2022/11/16 05:33:41;;;;;;;18.03;12.03;;;;;;;;;;4956705;29;20202;-92
2022/11/16 05:36:10;;;;;;;12.53;9.57;;;;;;;;;;4957280;29;20232;-92
2022/11/16 05:38:38;;;;;;;16.67;10.37;;;;;;;;;;4957743;28;20199;-91
2022/11/16 05:41:07;;;;;;;15.80;10.90;;;;;;;;;;4970588;28;20209;-93
2022/11/16 05:43:36;;;;;;;6.07;5.47;;;;;;;;;;4956897;29;20197;-92
2022/11/16 05:46:05;;;;;;;14.73;9.23;;;;;;;;;;4955989;29;20209;-93
2022/11/16 05:48:34;;;;;;;11.30;9.57;;;;;;;;;;4956005;29;20295;-92
2022/11/16 05:51:02;;;;;;;8.43;4.70;;;;;;;;;;4955544;28;20292;-92
2022/11/16 05:53:31;;;;;;;9.40;8.33;;;;;;;;;;4946321;29;20225;-91
2022/11/16 05:56:03;;;;;;;18.13;11.47;;;;;;;;;;4953028;29;20280;-92
2022/11/16 05:58:36;;;;;;;18.17;9.80;;;;;;;;;;4938464;29;20245;-89
2022/11/16 06:01:06;;;;;;;14.47;10.10;;;;;;;;;;4938731;29;20202;-92
2022/11/16 06:03:36;;;;;;;2.00;1.87;;;;;;;;;;4948596;28;20239;-91
2022/11/16 06:06:06;;;;;;;19.60;9.93;;;;;;;;;;4955334;29;20216;-92
2022/11/16 06:08:35;;;;;;;11.13;9.90;;;;;;;;;;4957540;29;20205;-92
2022/11/16 06:11:04;;;;;;;12.73;8.70;;;;;;;;;;4938296;29;20202;-92
2022/11/16 06:13:33;;;;;;;15.47;9.03;;;;;;;;;;4950503;29;20213;-91
2022/11/16 06:16:03;;;;;;;15.80;10.13;;;;;;;;;;4949815;29;20201;-92
2022/11/16 06:18:32;;;;;;;8.50;6.43;;;;;;;;;;4950322;28;20213;-93
2022/11/16 06:21:01;;;;;;;14.77;10.30;;;;;;;;;;4955979;29;20237;-91
2022/11/16 06:23:30;;;;;;;11.37;7.47;;;;;;;;;;4954896;29;20231;-92
2022/11/16 06:25:58;;;;;;;12.20;7.50;;;;;;;;;;4936746;29;20213;-92
2022/11/16 06:28:27;;;;;;;11.00;8.00;;;;;;;;;;4953122;29;20204;-93
2022/11/16 06:30:59;;;;;;;11.23;8.17;;;;;;;;;;4952900;29;20225;-92
2022/11/16 06:33:28;;;;;;;11.60;8.07;;;;;;;;;;4954774;29;20201;-92
2022/11/16 06:36:02;;;;;;;8.70;7.03;;;;;;;;;;4952583;29;20194;-93
2022/11/16 06:38:31;;;;;;;15.37;9.30;;;;;;;;;;4950295;29;20214;-91
2022/11/16 06:41:00;;;;;;;17.20;10.53;;;;;;;;;;4949200;29;20208;-92
2022/11/16 06:43:29;;;;;;;13.93;9.03;;;;;;;;;;4971832;28;20208;-91
2022/11/16 06:45:58;;;;;;;13.83;9.37;;;;;;;;;;4971085;28;20201;-91
2022/11/16 06:48:26;;;;;;;16.80;9.47;;;;;;;;;;4944939;29;20191;-92
2022/11/16 06:50:54;;;;;;;12.87;7.57;;;;;;;;;;4970859;28;20209;-91
2022/11/16 06:53:24;;;;;;;8.53;6.27;;;;;;;;;;4954808;29;20197;-91
2022/11/16 06:56:00;;;;;;;15.50;7.87;;;;;;;;;;4957911;28;20216;-91
2022/11/16 06:58:30;;;;;;;13.80;7.97;;;;;;;;;;4954773;29;20238;-90
2022/11/16 07:01:05;;;;;;;11.50;6.50;;;;;;;;;;4954853;29;20205;-89
2022/11/16 07:03:34;;;;;;;8.00;4.00;;;;;;;;;;4962807;28;20243;-91
2022/11/16 07:06:05;;;;;;;5.83;5.23;;;;;;;;;;4967673;28;20275;-90
2022/11/16 07:08:35;;;;;;;13.43;9.43;;;;;;;;;;4964202;28;20287;-90
2022/11/16 07:11:04;;;;;;;10.43;7.40;;;;;;;;;;4952244;28;20211;-91
2022/11/16 07:13:33;;;;;;;13.73;5.97;;;;;;;;;;4948807;29;20230;-89
2022/11/16 07:16:02;;;;;;;8.00;4.83;;;;;;;;;;4955233;29;20206;-90
2022/11/16 07:18:32;;;;;;;5.50;3.60;;;;;;;;;;4946552;29;20225;-93
2022/11/16 07:21:06;;;;;;;8.20;6.13;;;;;;;;;;4960185;29;20193;-93
2022/11/16 07:23:36;;;;;;;14.70;6.73;;;;;;;;;;4959085;29;20205;-94
2022/11/16 07:26:06;;;;;;;14.37;5.43;;;;;;;;;;4958547;29;20205;-93
2022/11/16 07:28:36;;;;;;;5.53;5.03;;;;;;;;;;4955530;29;20297;-95
2022/11/16 07:31:13;;;;;;;12.67;8.43;;;;;;;;;;4951737;29;20218;-93
2022/11/16 07:33:42;;;;;;;18.00;8.87;;;;;;;;;;4958778;29;20208;-94
2022/11/16 07:36:12;;;;;;;12.00;9.03;;;;;;;;;;4957309;29;20208;-91
2022/11/16 07:38:42;;;;;;;11.10;9.67;;;;;;;;;;4940097;29;20219;-94
2022/11/16 07:41:12;;;;;;;11.67;7.83;;;;;;;;;;4954683;29;20208;-93
2022/11/16 07:43:43;;;;;;;11.03;8.03;;;;;;;;;;4964103;29;20212;-95
2022/11/16 07:46:22;;;;;;;14.67;9.70;;;;;;;;;;4958704;29;20247;-95
2022/11/16 07:49:14;;;;;;;13.33;8.40;;;;;;;;;;4956666;29;20211;-94
2022/11/16 07:51:44;;;;;;;13.03;8.73;;;;;;;;;;4938926;29;20205;-93
2022/11/16 07:54:15;;;;;;;10.40;6.33;;;;;;;;;;4951563;29;20235;-93
2022/11/16 07:56:46;;;;;;;13.90;9.73;;;;;;;;;;4949602;29;20309;-94
2022/11/16 07:59:15;;;;;;;9.53;7.90;;;;;;;;;;4971546;28;20218;-94
2022/11/16 08:01:44;;;;;;;12.50;7.13;;;;;;;;;;4956103;28;20230;-92
2022/11/16 08:04:17;;;;;;;13.10;7.20;;;;;;;;;;4953569;28;20234;-94
2022/11/16 08:06:48;;;;;;;15.37;6.27;;;;;;;;;;4959646;28;20298;-95
2022/11/16 08:09:19;;;;;;;10.57;6.33;;;;;;;;;;4975518;28;20305;-94
2022/11/16 08:11:49;;;;;;;7.03;3.93;;;;;;;;;;4969162;28;20269;-94
2022/11/16 08:14:19;;;;;;;6.97;4.00;;;;;;;;;;4964605;28;20211;-94
2022/11/16 08:16:48;;;;;;;9.17;4.17;;;;;;;;;;4957339;29;20243;-93
2022/11/16 08:19:17;;;;;;;10.33;5.50;;;;;;;;;;4940843;29;20208;-94
2022/11/16 08:21:46;;;;;;;8.77;4.50;;;;;;;;;;4951410;29;20267;-93
2022/11/16 08:24:15;;;;;;;10.17;4.00;;;;;;;;;;4948945;29;20203;-94
2022/11/16 08:26:46;;;;;;;9.03;3.97;;;;;;;;;;4956867;29;20195;-95
2022/11/16 08:29:15;;;;;;;9.63;4.70;;;;;;;;;;4948222;29;20197;-94
2022/11/16 08:31:47;;;;;;;7.30;4.20;;;;;;;;;;4942999;29;20227;-93
2022/11/16 08:34:18;;;;;;;7.20;3.60;;;;;;;;;;4955086;29;20219;-94
2022/11/16 08:36:47;;;;;;;7.63;3.40;;;;;;;;;;4968043;28;20289;-93
2022/11/16 08:39:15;;;;;;;7.80;3.87;;;;;;;;;;4953321;29;20311;-90
2022/11/16 08:41:45;;;;;;;3.23;2.63;;;;;;;;;;4955444;28;20198;-91
2022/11/16 08:44:15;;;;;;;10.93;4.03;;;;;;;;;;4967050;28;20211;-94
2022/11/16 08:46:44;;;;;;;5.90;4.10;;;;;;;;;;4945721;29;20211;-94
2022/11/16 08:49:13;;;;;;;9.80;4.97;;;;;;;;;;4945308;29;20196;-93
2022/11/16 08:51:41;;;;;;;1.97;1.80;;;;;;;;;;4946353;29;20199;-93
2022/11/16 08:54:10;;;;;;;8.93;4.90;;;;;;;;;;4943382;29;20248;-93
2022/11/16 08:56:39;;;;;;;4.17;3.13;;;;;;;;;;4947121;29;20203;-93
2022/11/16 08:59:09;;;;;;;8.77;3.07;;;;;;;;;;4956431;28;20212;-92
2022/11/16 09:01:37;;;;;;;7.70;4.03;;;;;;;;;;4938857;29;20219;-93
2022/11/16 09:04:06;;;;;;;3.80;2.73;;;;;;;;;;4954473;29;20247;-93
2022/11/16 09:06:36;;;;;;;10.97;4.33;;;;;;;;;;4947663;29;20208;-93
2022/11/16 09:09:05;;;;;;;8.23;3.77;;;;;;;;;;4943064;29;20215;-92
2022/11/16 09:11:34;;;;;;;1.30;1.23;;;;;;;;;;4958155;29;20212;-93
2022/11/16 09:14:02;;;;;;;8.23;4.37;;;;;;;;;;4945134;29;20215;-92
2022/11/16 09:16:32;;;;;;;10.03;5.30;;;;;;;;;;4959115;28;20208;-93
2022/11/16 09:19:01;;;;;;;9.53;4.90;;;;;;;;;;4956829;29;20314;-92
2022/11/16 09:21:30;;;;;;;8.90;4.60;;;;;;;;;;4954172;29;20213;-91
2022/11/16 09:23:59;;;;;;;10.57;4.27;;;;;;;;;;4957838;28;20208;-91
2022/11/16 09:26:31;;;;;;;10.43;4.80;;;;;;;;;;4955706;28;20264;-92
2022/11/16 09:29:03;;;;;;;10.23;5.20;;;;;;;;;;4972227;28;20224;-92
2022/11/16 09:31:36;;;;;;;8.83;5.03;;;;;;;;;;4957076;29;20208;-90
2022/11/16 09:34:05;;;;;;;11.23;4.60;;;;;;;;;;4957914;29;20211;-90
2022/11/16 09:36:43;;;;;;;8.53;5.50;;;;;;;;;;4950691;28;20236;-90
2022/11/16 09:39:14;;;;;;;6.50;3.73;;;;;;;;;;4953998;28;20214;-93
2022/11/16 09:42:12;;;;;;;7.97;5.27;;;;;;;;;;4948082;28;20239;-92
2022/11/16 09:44:58;;;;;;;12.33;6.37;;;;;;;;;;4968341;28;20209;-92
2022/11/16 09:47:41;;;;;;;6.87;3.97;;;;;;;;;;4956746;28;20201;-91
2022/11/16 09:50:18;;;;;;;12.47;6.03;;;;;;;;;;4953673;29;20210;-90
2022/11/16 09:52:49;;;;;;;8.57;5.73;;;;;;;;;;4954143;28;20195;-89
2022/11/16 09:55:36;;;;;;;7.03;4.97;;;;;;;;;;4948454;28;20261;-91
2022/11/16 09:58:38;;;;;;;7.93;6.10;;;;;;;;;;4956936;28;20223;-90
2022/11/16 10:01:39;;;;;;;11.17;6.20;;;;;;;;;;4913383;29;20204;-92
2022/11/16 10:04:19;;;;;;;8.57;5.33;;;;;;;;;;4953210;28;20240;-88
2022/11/16 10:07:08;;;;;;;8.03;4.70;;;;;;;;;;4961029;28;20205;-91
2022/11/16 10:09:37;;;;;;;7.87;5.03;;;;;;;;;;4952426;29;20287;-89
2022/11/16 10:12:16;;;;;;;8.10;6.20;;;;;;;;;;4965477;28;20208;-93
2022/11/16 10:14:52;;;;;;;8.07;5.90;;;;;;;;;;4953591;28;20239;-92
2022/11/16 10:17:33;;;;;;;9.10;6.03;;;;;;;;;;4959782;28;20199;-90
2022/11/16 10:20:18;;;;;;;7.57;5.23;;;;;;;;;;4955942;28;20264;-92
2022/11/16 10:23:16;;;;;;;9.17;5.77;;;;;;;;;;4958178;28;20234;-94
2022/11/16 10:25:48;;;;;;;10.37;7.40;;;;;;;;;;5223908;23;20304;-86
2022/11/16 10:31:43;;;;;;;8.53;7.43;;;;;;;;;;5000790;28;20207;-90
2022/11/16 10:34:44;;;;;;;14.87;7.77;;;;;;;;;;4972669;28;20236;-90
2022/11/16 10:40:37;;;;;;;16.43;9.63;;;;;;;;;;4963053;28;20208;-93
2022/11/16 10:43:11;;;;;;;9.27;8.37;;;;;;;;;;4965221;28;20211;-90
2022/11/16 10:45:40;;;;;;;9.43;6.57;;;;;;;;;;4977140;28;20197;-91
2022/11/16 10:48:16;;;;;;;12.33;7.27;;;;;;;;;;4965726;28;20243;-91
2022/11/16 10:50:46;;;;;;;14.17;8.07;;;;;;;;;;4968517;28;20219;-93
2022/11/16 10:53:26;;;;;;;11.60;8.57;;;;;;;;;;4966963;28;20204;-92
2022/11/16 10:56:01;;;;;;;14.07;10.00;;;;;;;;;;4982652;28;20208;-90
2022/11/16 10:58:55;;;;;;;10.63;8.87;;;;;;;;;;4980790;28;20216;-90
2022/11/16 11:05:01;;;;;;;15.67;11.07;;;;;;;;;;4961187;28;20225;-91
2022/11/16 11:07:31;;;;;;;10.20;8.10;;;;;;;;;;4964992;28;20243;-89
2022/11/16 11:10:06;;;;;;;8.83;7.67;;;;;;;;;;4981384;28;20201;-91
2022/11/16 11:12:39;;;;;;;12.00;8.37;;;;;;;;;;4959139;28;20297;-91
2022/11/16 11:15:22;;;;;;;7.67;6.50;;;;;;;;;;4962062;28;20346;-90
2022/11/16 11:18:08;;;;;;;9.67;8.70;;;;;;;;;;4963467;28;20221;-90
2022/11/16 11:20:40;;;;;;;10.90;7.43;;;;;;;;;;4960330;28;20231;-93
2022/11/16 11:23:15;;;;;;;9.97;7.60;;;;;;;;;;4959270;28;20208;-92
2022/11/16 11:25:51;;;;;;;11.23;8.87;;;;;;;;;;4963538;28;20215;-90
2022/11/16 11:28:24;;;;;;;15.23;7.37;;;;;;;;;;4959942;28;20231;-92
2022/11/16 11:30:58;;;;;;;9.07;5.83;;;;;;;;;;4977029;28;20209;-92
2022/11/16 11:33:31;;;;;;;7.93;5.13;;;;;;;;;;4963696;28;20656;-88
2022/11/16 11:36:05;;;;;;;9.83;6.80;;;;;;;;;;4966321;28;20221;-90
2022/11/16 11:38:35;;;;;;;8.83;5.60;;;;;;;;;;4960070;28;20204;-92
2022/11/16 11:44:15;;;;;;;7.73;5.70;;;;;;;;;;4963183;28;20222;-90
2022/11/16 11:46:48;;;;;;;11.17;6.67;;;;;;;;;;4962080;28;20203;-92
2022/11/16 11:49:40;;;;;;;11.93;6.03;;;;;;;;;;4961150;28;20229;-89
2022/11/16 11:52:12;;;;;;;6.17;5.07;;;;;;;;;;4963011;28;20268;-91
2022/11/16 11:54:42;;;;;;;9.27;4.60;;;;;;;;;;4963658;28;20205;-90
2022/11/16 12:00:01;;;;;;;6.73;4.87;;;;;;;;;;4965468;28;20260;-90
2022/11/16 12:02:37;;;;;;;9.57;4.53;;;;;;;;;;4959407;28;20275;-92
2022/11/16 12:05:24;;;;;;;8.20;4.93;;;;;;;;;;4964717;28;20233;-92
2022/11/16 12:07:59;;;;;;;7.53;4.87;;;;;;;;;;4962999;28;20219;-91
2022/11/16 12:10:32;;;;;;;8.17;5.40;;;;;;;;;;4965551;28;20216;-93
2022/11/16 12:13:11;;;;;;;9.67;4.57;;;;;;;;;;4962226;28;20197;-89
2022/11/16 12:15:52;;;;;;;11.23;5.20;;;;;;;;;;4963598;28;20204;-91
2022/11/16 12:18:30;;;;;;;10.90;5.50;;;;;;;;;;4970229;28;20202;-91
2022/11/16 12:21:06;;;;;;;6.73;4.47;;;;;;;;;;4970109;28;20215;-87
2022/11/16 12:23:41;;;;;;;8.07;4.63;;;;;;;;;;4963337;28;20208;-86
2022/11/16 12:26:13;;;;;;;8.53;5.03;;;;;;;;;;4979166;28;20241;-87
2022/11/16 12:28:58;;;;;;;8.80;5.10;;;;;;;;;;4969331;28;20228;-91
2022/11/16 12:31:46;;;;;;;6.93;4.20;;;;;;;;;;4962922;28;20217;-89
2022/11/16 12:34:22;;;;;;;5.87;4.13;;;;;;;;;;4975654;28;20205;-90
2022/11/16 12:37:04;;;;;;;7.00;4.13;;;;;;;;;;4980245;28;20206;-88
2022/11/16 12:39:35;;;;;;;8.20;3.60;;;;;;;;;;4967172;28;20268;-89
2022/11/16 12:42:21;;;;;;;8.83;3.73;;;;;;;;;;4966382;28;20276;-88
2022/11/16 12:45:00;;;;;;;6.37;3.77;;;;;;;;;;4964014;28;20236;-87
2022/11/16 12:47:31;;;;;;;5.83;3.63;;;;;;;;;;4965796;28;20219;-89
2022/11/16 12:50:08;;;;;;;6.40;3.47;;;;;;;;;;4964964;28;20205;-89
2022/11/16 12:52:44;;;;;;;4.50;2.50;;;;;;;;;;4961947;28;20213;-89
2022/11/16 12:55:29;;;;;;;4.60;2.90;;;;;;;;;;4973538;28;20229;-90
2022/11/16 12:58:17;;;;;;;9.73;3.63;;;;;;;;;;4966444;28;20955;-88
2022/11/16 13:00:51;;;;;;;8.50;3.93;;;;;;;;;;4962662;28;20217;-88
2022/11/16 13:03:24;;;;;;;5.60;2.87;;;;;;;;;;4963641;28;20243;-91
2022/11/16 13:05:56;;;;;;;5.03;2.80;;;;;;;;;;4977903;28;20201;-93
2022/11/16 13:08:34;;;;;;;5.83;2.33;;;;;;;;;;4977605;28;20217;-90
2022/11/16 13:11:05;;;;;;;2.33;2.13;;;;;;;;;;4965111;28;20203;-92
2022/11/16 13:13:34;;;;;;;3.43;2.10;;;;;;;;;;4966067;28;20201;-93
2022/11/16 13:16:06;;;;;;;6.33;3.93;;;;;;;;;;4965451;28;20256;-89
2022/11/16 13:18:38;;;;;;;9.37;3.40;;;;;;;;;;4967203;28;20653;-91
2022/11/16 13:21:13;;;;;;;5.73;3.47;;;;;;;;;;4960977;28;20214;-89
2022/11/16 13:23:45;;;;;;;5.30;3.57;;;;;;;;;;4971887;28;20236;-86
2022/11/16 13:26:19;;;;;;;5.73;3.97;;;;;;;;;;4970943;28;20339;-91
2022/11/16 13:28:51;;;;;;;7.53;3.83;;;;;;;;;;4962492;28;20288;-88
2022/11/16 13:31:22;;;;;;;7.80;3.70;;;;;;;;;;4966207;28;20219;-87
2022/11/16 13:33:54;;;;;;;10.10;3.67;;;;;;;;;;4973829;28;20197;-90
2022/11/16 13:36:43;;;;;;;8.00;3.33;;;;;;;;;;4962907;28;20213;-89
2022/11/16 13:39:13;;;;;;;6.13;3.20;;;;;;;;;;4965210;28;20236;-88
2022/11/16 13:42:03;;;;;;;4.57;2.77;;;;;;;;;;4966288;28;20224;-87
2022/11/16 13:44:39;;;;;;;7.70;3.00;;;;;;;;;;4964672;28;20254;-88
2022/11/16 13:47:21;;;;;;;7.30;3.30;;;;;;;;;;4961731;28;20235;-88
2022/11/16 13:49:55;;;;;;;4.83;3.03;;;;;;;;;;4964986;28;20224;-87
2022/11/16 13:52:41;;;;;;;4.60;3.00;;;;;;;;;;4962256;28;20201;-92
2022/11/16 13:55:34;;;;;;;2.83;1.93;;;;;;;;;;4962547;28;20212;-93
2022/11/16 13:58:05;;;;;;;7.53;3.30;;;;;;;;;;4957992;28;20232;-88
2022/11/16 14:00:37;;;;;;;5.47;2.97;;;;;;;;;;4958247;28;20216;-90
2022/11/16 14:03:26;;;;;;;10.53;3.27;;;;;;;;;;4962784;28;20255;-88
2022/11/16 14:05:55;;;;;;;6.93;3.13;;;;;;;;;;4967297;28;20251;-90
2022/11/16 14:08:43;;;;;;;8.43;3.17;;;;;;;;;;4966213;28;20241;-87
2022/11/16 14:15:05;;;;;;;3.67;2.47;;;;;;;;;;4957460;28;20256;-85
2022/11/16 14:17:52;;;;;;;9.10;4.03;;;;;;;;;;4960700;28;20205;-86
2022/11/16 14:20:54;;;;;;;6.87;2.80;;;;;;;;;;4959658;28;20228;-87
2022/11/16 14:23:37;;;;;;;6.17;3.43;;;;;;;;;;4898895;29;20207;-87
2022/11/16 14:26:13;;;;;;;5.27;2.83;;;;;;;;;;4882953;29;20242;-87
2022/11/16 14:29:04;;;;;;;7.87;3.90;;;;;;;;;;4929630;28;20224;-86
2022/11/16 14:31:51;;;;;;;7.73;4.13;;;;;;;;;;4952243;28;20205;-86
2022/11/16 14:34:21;;;;;;;11.63;4.30;;;;;;;;;;4957249;28;20213;-86
2022/11/16 14:36:50;;;;;;;3.27;2.07;;;;;;;;;;4957347;28;20201;-85
2022/11/16 14:39:37;;;;;;;7.90;3.13;;;;;;;;;;4966318;28;20211;-86
2022/11/16 14:42:10;;;;;;;6.63;2.77;;;;;;;;;;4963596;28;20240;-86
2022/11/16 14:44:39;;;;;;;5.17;2.60;;;;;;;;;;4961492;28;20246;-87
2022/11/16 14:47:19;;;;;;;4.73;2.97;;;;;;;;;;4957775;28;20230;-86
2022/11/16 14:49:48;;;;;;;2.50;1.83;;;;;;;;;;4957284;28;20204;-86
2022/11/16 14:52:18;;;;;;;9.83;3.50;;;;;;;;;;4955952;28;20205;-88
2022/11/16 14:54:52;;;;;;;4.20;2.30;;;;;;;;;;4957804;28;20231;-89
2022/11/16 14:57:22;;;;;;;6.00;2.60;;;;;;;;;;4973376;28;20205;-90
2022/11/16 15:00:12;;;;;;;8.43;2.70;;;;;;;;;;4957660;28;20205;-89
2022/11/16 15:02:44;;;;;;;5.57;3.27;;;;;;;;;;4956612;28;20272;-88
2022/11/16 15:05:47;;;;;;;;;;;;;;;;;;;;;
2022/11/16 15:12:50;;;;;;;3.47;2.27;;;;;;;;;;4945501;28;20220;-88
2022/11/16 15:15:36;;;;;;;6.43;3.10;;;;;;;;;;4957595;28;20217;-88
2022/11/16 15:18:18;;;;;;;5.83;2.90;;;;;;;;;;4959714;28;20216;-88
2022/11/16 15:21:21;;;;;;;8.93;2.90;;;;;;;;;;4970462;28;20229;-88
2022/11/16 15:24:03;;;;;;;5.70;2.60;;;;;;;;;;4960016;28;20300;-88
2022/11/16 15:27:18;;;;;;;14.40;2.63;;;;;;;;;;4959632;28;20250;-88
2022/11/16 15:29:56;;;;;;;6.80;3.30;;;;;;;;;;4962837;28;20197;-88
2022/11/16 15:32:37;;;;;;;9.53;4.20;;;;;;;;;;4959703;28;20238;-86
2022/11/16 15:35:15;;;;;;;8.90;3.90;;;;;;;;;;4962350;28;20234;-88
2022/11/16 15:37:44;;;;;;;6.60;2.67;;;;;;;;;;4963695;28;20209;-89
2022/11/16 15:40:13;;;;;;;1.10;1.10;;;;;;;;;;4966371;28;20205;-89
2022/11/16 15:42:42;;;;;;;1.70;1.60;;;;;;;;;;4965312;28;20213;-88
2022/11/16 15:45:17;;;;;;;8.93;2.67;;;;;;;;;;4970034;28;20290;-89
2022/11/16 15:47:53;;;;;;;3.53;1.93;;;;;;;;;;4975434;28;20207;-88
2022/11/16 15:50:25;;;;;;;0.60;0.60;;;;;;;;;;4960914;28;20204;-85
2022/11/16 15:52:55;;;;;;;0.53;0.53;;;;;;;;;;4962749;28;20273;-86
2022/11/16 15:55:26;;;;;;;2.27;1.53;;;;;;;;;;4979474;28;20208;-86
2022/11/16 15:58:00;;;;;;;1.90;1.33;;;;;;;;;;4969239;28;20197;-86
2022/11/16 16:00:30;;;;;;;3.27;2.07;;;;;;;;;;4977442;28;20232;-86
2022/11/16 16:03:04;;;;;;;2.23;1.70;;;;;;;;;;4983574;28;20219;-87
2022/11/16 16:05:35;;;;;;;1.70;1.30;;;;;;;;;;4971638;28;20189;-86
2022/11/16 16:08:04;;;;;;;4.70;2.57;;;;;;;;;;4974450;28;20212;-87
2022/11/16 16:10:36;;;;;;;3.03;2.70;;;;;;;;;;4974109;28;20272;-87
2022/11/16 16:13:19;;;;;;;5.13;2.00;;;;;;;;;;4965367;28;20200;-87